sensor_id;sensor_type;location;lat;lon;timestamp;temperature;humidity
6114;DHT22;3087;48.392;10.836;2024-03-02T00:02:24;7.50;99.90
6114;DHT22;3087;48.392;10.836;2024-03-02T00:04:50;7.50;99.90
6114;DHT22;3087;48.392;10.836;2024-03-02T00:07:17;7.50;99.90
6114;DHT22;3087;48.392;10.836;2024-03-02T00:09:43;7.50;99.90
6114;DHT22;3087;48.392;10.836;2024-03-02T00:12:11;7.60;99.90
6114;DHT22;3087;48.392;10.836;2024-03-02T00:14:41;7.50;99.90
6114;DHT22;3087;48.392;10.836;2024-03-02T00:17:13;7.50;99.90
6114;DHT22;3087;48.392;10.836;2024-03-02T00:19:41;7.50;99.90
6114;DHT22;3087;48.392;10.836;2024-03-02T00:22:07;7.40;99.90
6114;DHT22;3087;48.392;10.836;2024-03-02T00:24:34;7.50;99.90
6114;DHT22;3087;48.392;10.836;2024-03-02T00:27:01;7.50;99.90
6114;DHT22;3087;48.392;10.836;2024-03-02T00:29:27;8.90;99.90
6114;DHT22;3087;48.392;10.836;2024-03-02T00:31:54;7.40;99.90
6114;DHT22;3087;48.392;10.836;2024-03-02T00:34:21;7.40;99.90
6114;DHT22;3087;48.392;10.836;2024-03-02T00:36:47;8.00;99.90
6114;DHT22;3087;48.392;10.836;2024-03-02T00:39:15;7.30;99.90
6114;DHT22;3087;48.392;10.836;2024-03-02T00:41:42;7.30;99.90
6114;DHT22;3087;48.392;10.836;2024-03-02T00:44:10;7.40;99.90
6114;DHT22;3087;48.392;10.836;2024-03-02T00:46:38;7.40;99.90
6114;DHT22;3087;48.392;10.836;2024-03-02T00:49:13;7.40;99.90
6114;DHT22;3087;48.392;10.836;2024-03-02T00:51:46;7.30;99.90
6114;DHT22;3087;48.392;10.836;2024-03-02T00:54:14;7.30;99.90
6114;DHT22;3087;48.392;10.836;2024-03-02T00:56:41;7.20;99.90
6114;DHT22;3087;48.392;10.836;2024-03-02T00:59:07;7.20;99.90
6114;DHT22;3087;48.392;10.836;2024-03-02T01:01:34;7.10;99.90
6114;DHT22;3087;48.392;10.836;2024-03-02T01:04:00;7.10;99.90
6114;DHT22;3087;48.392;10.836;2024-03-02T01:06:25;7.10;99.90
6114;DHT22;3087;48.392;10.836;2024-03-02T01:08:51;7.10;99.90
6114;DHT22;3087;48.392;10.836;2024-03-02T01:11:17;7.00;99.90
6114;DHT22;3087;48.392;10.836;2024-03-02T01:13:44;7.00;99.90
6114;DHT22;3087;48.392;10.836;2024-03-02T01:16:10;7.10;99.90
6114;DHT22;3087;48.392;10.836;2024-03-02T01:18:35;7.10;99.90
6114;DHT22;3087;48.392;10.836;2024-03-02T01:21:01;7.10;99.90
6114;DHT22;3087;48.392;10.836;2024-03-02T01:23:27;7.10;99.90
6114;DHT22;3087;48.392;10.836;2024-03-02T01:25:53;7.10;99.90
6114;DHT22;3087;48.392;10.836;2024-03-02T01:28:19;7.10;99.90
6114;DHT22;3087;48.392;10.836;2024-03-02T01:30:46;7.10;99.90
6114;DHT22;3087;48.392;10.836;2024-03-02T01:33:11;7.10;99.90
6114;DHT22;3087;48.392;10.836;2024-03-02T01:35:37;7.10;99.90
6114;DHT22;3087;48.392;10.836;2024-03-02T01:38:03;7.00;99.90
6114;DHT22;3087;48.392;10.836;2024-03-02T01:40:29;7.00;99.90
6114;DHT22;3087;48.392;10.836;2024-03-02T01:42:55;7.40;99.90
6114;DHT22;3087;48.392;10.836;2024-03-02T01:45:21;6.90;99.90
6114;DHT22;3087;48.392;10.836;2024-03-02T01:47:47;7.00;99.90
6114;DHT22;3087;48.392;10.836;2024-03-02T01:50:13;7.00;99.90
6114;DHT22;3087;48.392;10.836;2024-03-02T01:52:39;6.90;99.90
6114;DHT22;3087;48.392;10.836;2024-03-02T01:55:05;6.90;99.90
6114;DHT22;3087;48.392;10.836;2024-03-02T01:57:33;7.00;99.90
6114;DHT22;3087;48.392;10.836;2024-03-02T01:59:59;7.00;99.90
6114;DHT22;3087;48.392;10.836;2024-03-02T02:02:24;7.00;99.90
6114;DHT22;3087;48.392;10.836;2024-03-02T02:04:50;7.00;99.90
6114;DHT22;3087;48.392;10.836;2024-03-02T02:07:15;6.90;99.90
6114;DHT22;3087;48.392;10.836;2024-03-02T02:09:42;6.90;99.90
6114;DHT22;3087;48.392;10.836;2024-03-02T02:12:08;7.00;99.90
6114;DHT22;3087;48.392;10.836;2024-03-02T02:14:34;7.00;99.90
6114;DHT22;3087;48.392;10.836;2024-03-02T02:16:59;7.00;99.90
6114;DHT22;3087;48.392;10.836;2024-03-02T02:19:25;7.00;99.90
6114;DHT22;3087;48.392;10.836;2024-03-02T02:21:51;7.00;99.90
6114;DHT22;3087;48.392;10.836;2024-03-02T02:24:16;7.80;99.90
6114;DHT22;3087;48.392;10.836;2024-03-02T02:26:42;7.00;99.90
6114;DHT22;3087;48.392;10.836;2024-03-02T02:29:07;7.00;99.90
6114;DHT22;3087;48.392;10.836;2024-03-02T02:31:51;7.00;99.90
6114;DHT22;3087;48.392;10.836;2024-03-02T02:34:17;7.00;99.90
6114;DHT22;3087;48.392;10.836;2024-03-02T02:36:42;7.00;99.90
6114;DHT22;3087;48.392;10.836;2024-03-02T02:39:11;7.10;99.90
6114;DHT22;3087;48.392;10.836;2024-03-02T02:41:38;7.00;99.90
6114;DHT22;3087;48.392;10.836;2024-03-02T02:44:05;7.00;99.90
6114;DHT22;3087;48.392;10.836;2024-03-02T02:46:30;7.70;99.90
6114;DHT22;3087;48.392;10.836;2024-03-02T02:48:56;7.00;99.90
6114;DHT22;3087;48.392;10.836;2024-03-02T02:51:21;7.00;99.90
6114;DHT22;3087;48.392;10.836;2024-03-02T02:53:47;6.90;99.90
6114;DHT22;3087;48.392;10.836;2024-03-02T02:56:13;6.90;99.90
6114;DHT22;3087;48.392;10.836;2024-03-02T02:58:40;6.90;99.90
6114;DHT22;3087;48.392;10.836;2024-03-02T03:01:06;7.00;99.90
6114;DHT22;3087;48.392;10.836;2024-03-02T03:03:33;7.00;99.90
6114;DHT22;3087;48.392;10.836;2024-03-02T03:05:58;7.10;99.90
6114;DHT22;3087;48.392;10.836;2024-03-02T03:08:24;7.40;99.90
6114;DHT22;3087;48.392;10.836;2024-03-02T03:10:49;7.30;99.90
6114;DHT22;3087;48.392;10.836;2024-03-02T03:13:15;7.10;99.90
6114;DHT22;3087;48.392;10.836;2024-03-02T03:15:40;7.20;99.90
6114;DHT22;3087;48.392;10.836;2024-03-02T03:18:06;7.10;99.90
6114;DHT22;3087;48.392;10.836;2024-03-02T03:20:35;7.00;99.90
6114;DHT22;3087;48.392;10.836;2024-03-02T03:23:01;7.00;99.90
6114;DHT22;3087;48.392;10.836;2024-03-02T03:25:27;6.90;99.90
6114;DHT22;3087;48.392;10.836;2024-03-02T03:27:52;6.90;99.90
6114;DHT22;3087;48.392;10.836;2024-03-02T03:30:18;6.90;99.90
6114;DHT22;3087;48.392;10.836;2024-03-02T03:32:44;6.90;99.90
6114;DHT22;3087;48.392;10.836;2024-03-02T03:35:09;7.00;99.90
6114;DHT22;3087;48.392;10.836;2024-03-02T03:37:35;7.00;99.90
6114;DHT22;3087;48.392;10.836;2024-03-02T03:40:01;7.20;99.90
6114;DHT22;3087;48.392;10.836;2024-03-02T03:42:28;7.00;99.90
6114;DHT22;3087;48.392;10.836;2024-03-02T03:44:53;7.00;99.90
6114;DHT22;3087;48.392;10.836;2024-03-02T03:47:19;7.00;99.90
6114;DHT22;3087;48.392;10.836;2024-03-02T03:49:45;7.60;99.90
6114;DHT22;3087;48.392;10.836;2024-03-02T03:52:11;7.20;99.90
6114;DHT22;3087;48.392;10.836;2024-03-02T03:54:36;7.40;99.90
6114;DHT22;3087;48.392;10.836;2024-03-02T03:57:03;7.50;99.90
6114;DHT22;3087;48.392;10.836;2024-03-02T03:59:29;7.60;99.90
6114;DHT22;3087;48.392;10.836;2024-03-02T04:01:55;7.60;99.90
6114;DHT22;3087;48.392;10.836;2024-03-02T04:04:20;7.40;99.90
6114;DHT22;3087;48.392;10.836;2024-03-02T04:06:46;7.30;99.90
6114;DHT22;3087;48.392;10.836;2024-03-02T04:09:12;7.10;99.90
6114;DHT22;3087;48.392;10.836;2024-03-02T04:11:37;7.10;99.90
6114;DHT22;3087;48.392;10.836;2024-03-02T04:14:03;7.10;99.90
6114;DHT22;3087;48.392;10.836;2024-03-02T04:16:29;7.10;99.90
6114;DHT22;3087;48.392;10.836;2024-03-02T04:18:54;7.00;99.90
6114;DHT22;3087;48.392;10.836;2024-03-02T04:21:20;7.00;99.90
6114;DHT22;3087;48.392;10.836;2024-03-02T04:23:46;7.00;99.90
6114;DHT22;3087;48.392;10.836;2024-03-02T04:26:12;7.00;99.90
6114;DHT22;3087;48.392;10.836;2024-03-02T04:28:37;7.10;99.90
6114;DHT22;3087;48.392;10.836;2024-03-02T04:31:03;7.00;99.90
6114;DHT22;3087;48.392;10.836;2024-03-02T04:33:29;7.00;99.90
6114;DHT22;3087;48.392;10.836;2024-03-02T04:35:54;7.00;99.90
6114;DHT22;3087;48.392;10.836;2024-03-02T04:38:20;7.00;99.90
6114;DHT22;3087;48.392;10.836;2024-03-02T04:40:45;7.00;99.90
6114;DHT22;3087;48.392;10.836;2024-03-02T04:43:11;7.00;99.90
6114;DHT22;3087;48.392;10.836;2024-03-02T04:45:40;6.90;99.90
6114;DHT22;3087;48.392;10.836;2024-03-02T04:48:06;6.90;99.90
6114;DHT22;3087;48.392;10.836;2024-03-02T04:50:32;6.90;99.90
6114;DHT22;3087;48.392;10.836;2024-03-02T04:52:57;6.90;99.90
6114;DHT22;3087;48.392;10.836;2024-03-02T04:55:23;6.90;99.90
6114;DHT22;3087;48.392;10.836;2024-03-02T04:57:55;6.90;99.90
6114;DHT22;3087;48.392;10.836;2024-03-02T05:00:21;6.80;99.90
6114;DHT22;3087;48.392;10.836;2024-03-02T05:02:47;6.90;99.90
6114;DHT22;3087;48.392;10.836;2024-03-02T05:05:12;6.90;99.90
6114;DHT22;3087;48.392;10.836;2024-03-02T05:07:38;6.90;99.90
6114;DHT22;3087;48.392;10.836;2024-03-02T05:10:04;7.10;99.90
6114;DHT22;3087;48.392;10.836;2024-03-02T05:12:29;6.90;99.90
6114;DHT22;3087;48.392;10.836;2024-03-02T05:15:21;6.90;99.90
6114;DHT22;3087;48.392;10.836;2024-03-02T05:17:47;6.80;99.90
6114;DHT22;3087;48.392;10.836;2024-03-02T05:20:12;6.80;99.90
6114;DHT22;3087;48.392;10.836;2024-03-02T05:22:38;6.80;99.90
6114;DHT22;3087;48.392;10.836;2024-03-02T05:25:05;6.80;99.90
6114;DHT22;3087;48.392;10.836;2024-03-02T05:27:31;6.80;99.90
6114;DHT22;3087;48.392;10.836;2024-03-02T05:30:00;6.70;99.90
6114;DHT22;3087;48.392;10.836;2024-03-02T05:32:26;6.70;99.90
6114;DHT22;3087;48.392;10.836;2024-03-02T05:34:51;6.70;99.90
6114;DHT22;3087;48.392;10.836;2024-03-02T05:37:17;6.70;99.90
6114;DHT22;3087;48.392;10.836;2024-03-02T05:39:43;6.70;99.90
6114;DHT22;3087;48.392;10.836;2024-03-02T05:42:09;6.60;99.90
6114;DHT22;3087;48.392;10.836;2024-03-02T05:44:36;6.60;99.90
6114;DHT22;3087;48.392;10.836;2024-03-02T05:47:01;6.70;99.90
6114;DHT22;3087;48.392;10.836;2024-03-02T05:49:27;6.50;99.90
6114;DHT22;3087;48.392;10.836;2024-03-02T05:51:52;6.40;99.90
6114;DHT22;3087;48.392;10.836;2024-03-02T05:54:18;6.30;99.90
6114;DHT22;3087;48.392;10.836;2024-03-02T05:56:43;6.30;99.90
6114;DHT22;3087;48.392;10.836;2024-03-02T05:59:09;6.30;99.90
6114;DHT22;3087;48.392;10.836;2024-03-02T06:01:39;6.20;99.90
6114;DHT22;3087;48.392;10.836;2024-03-02T06:04:05;6.20;99.90
6114;DHT22;3087;48.392;10.836;2024-03-02T06:06:31;6.20;99.90
6114;DHT22;3087;48.392;10.836;2024-03-02T06:09:02;6.20;99.90
6114;DHT22;3087;48.392;10.836;2024-03-02T06:11:30;6.20;99.90
6114;DHT22;3087;48.392;10.836;2024-03-02T06:13:56;6.20;99.90
6114;DHT22;3087;48.392;10.836;2024-03-02T06:16:21;6.20;99.90
6114;DHT22;3087;48.392;10.836;2024-03-02T06:18:47;6.20;99.90
6114;DHT22;3087;48.392;10.836;2024-03-02T06:21:13;6.20;99.90
6114;DHT22;3087;48.392;10.836;2024-03-02T06:23:38;7.20;99.90
6114;DHT22;3087;48.392;10.836;2024-03-02T06:26:04;6.20;99.90
6114;DHT22;3087;48.392;10.836;2024-03-02T06:28:29;6.20;99.90
6114;DHT22;3087;48.392;10.836;2024-03-02T06:30:55;6.70;99.90
6114;DHT22;3087;48.392;10.836;2024-03-02T06:33:20;6.20;99.90
6114;DHT22;3087;48.392;10.836;2024-03-02T06:35:46;6.30;99.90
6114;DHT22;3087;48.392;10.836;2024-03-02T06:38:11;6.30;99.90
6114;DHT22;3087;48.392;10.836;2024-03-02T06:40:37;6.30;99.90
6114;DHT22;3087;48.392;10.836;2024-03-02T06:43:06;6.30;99.90
6114;DHT22;3087;48.392;10.836;2024-03-02T06:45:32;5.70;99.90
6114;DHT22;3087;48.392;10.836;2024-03-02T06:47:59;6.40;99.90
6114;DHT22;3087;48.392;10.836;2024-03-02T06:50:25;6.40;99.90
6114;DHT22;3087;48.392;10.836;2024-03-02T06:52:50;6.50;99.90
6114;DHT22;3087;48.392;10.836;2024-03-02T06:55:16;6.60;99.90
6114;DHT22;3087;48.392;10.836;2024-03-02T06:57:41;6.80;99.90
6114;DHT22;3087;48.392;10.836;2024-03-02T07:00:07;6.60;99.90
6114;DHT22;3087;48.392;10.836;2024-03-02T07:02:34;6.60;99.90
6114;DHT22;3087;48.392;10.836;2024-03-02T07:05:01;6.70;99.90
6114;DHT22;3087;48.392;10.836;2024-03-02T07:07:27;6.80;99.90
6114;DHT22;3087;48.392;10.836;2024-03-02T07:09:53;6.90;99.90
6114;DHT22;3087;48.392;10.836;2024-03-02T07:12:18;7.10;99.90
6114;DHT22;3087;48.392;10.836;2024-03-02T07:14:44;6.90;99.90
6114;DHT22;3087;48.392;10.836;2024-03-02T07:17:27;7.00;99.90
6114;DHT22;3087;48.392;10.836;2024-03-02T07:19:53;7.00;99.90
6114;DHT22;3087;48.392;10.836;2024-03-02T07:22:19;7.10;99.90
6114;DHT22;3087;48.392;10.836;2024-03-02T07:24:45;8.20;99.90
6114;DHT22;3087;48.392;10.836;2024-03-02T07:27:12;7.20;99.90
6114;DHT22;3087;48.392;10.836;2024-03-02T07:29:38;7.20;99.90
6114;DHT22;3087;48.392;10.836;2024-03-02T07:32:05;7.10;99.90
6114;DHT22;3087;48.392;10.836;2024-03-02T07:34:31;7.10;99.90
6114;DHT22;3087;48.392;10.836;2024-03-02T07:36:56;7.20;99.90
6114;DHT22;3087;48.392;10.836;2024-03-02T07:39:22;7.20;99.90
6114;DHT22;3087;48.392;10.836;2024-03-02T07:41:48;7.40;99.90
6114;DHT22;3087;48.392;10.836;2024-03-02T07:44:14;8.60;99.90
6114;DHT22;3087;48.392;10.836;2024-03-02T07:46:43;7.90;99.90
6114;DHT22;3087;48.392;10.836;2024-03-02T07:49:09;8.10;99.90
6114;DHT22;3087;48.392;10.836;2024-03-02T07:51:35;8.30;99.90
6114;DHT22;3087;48.392;10.836;2024-03-02T07:54:01;8.30;99.90
6114;DHT22;3087;48.392;10.836;2024-03-02T07:56:27;9.20;99.90
6114;DHT22;3087;48.392;10.836;2024-03-02T07:58:53;9.10;99.90
6114;DHT22;3087;48.392;10.836;2024-03-02T08:01:19;8.70;99.90
6114;DHT22;3087;48.392;10.836;2024-03-02T08:03:44;8.40;99.90
6114;DHT22;3087;48.392;10.836;2024-03-02T08:06:18;8.50;99.90
6114;DHT22;3087;48.392;10.836;2024-03-02T08:08:46;8.70;99.90
6114;DHT22;3087;48.392;10.836;2024-03-02T08:11:11;9.00;99.90
6114;DHT22;3087;48.392;10.836;2024-03-02T08:13:38;9.90;99.90
6114;DHT22;3087;48.392;10.836;2024-03-02T08:16:04;9.10;99.90
6114;DHT22;3087;48.392;10.836;2024-03-02T08:18:32;9.10;99.90
6114;DHT22;3087;48.392;10.836;2024-03-02T08:20:58;9.00;99.90
6114;DHT22;3087;48.392;10.836;2024-03-02T08:23:23;9.00;99.90
6114;DHT22;3087;48.392;10.836;2024-03-02T08:25:49;9.00;99.90
6114;DHT22;3087;48.392;10.836;2024-03-02T08:28:15;9.10;99.90
6114;DHT22;3087;48.392;10.836;2024-03-02T08:30:40;8.40;99.90
6114;DHT22;3087;48.392;10.836;2024-03-02T08:33:06;9.30;99.90
6114;DHT22;3087;48.392;10.836;2024-03-02T08:35:31;9.40;99.90
6114;DHT22;3087;48.392;10.836;2024-03-02T08:38:02;10.00;99.90
6114;DHT22;3087;48.392;10.836;2024-03-02T08:40:28;9.60;99.90
6114;DHT22;3087;48.392;10.836;2024-03-02T08:42:54;9.70;99.90
6114;DHT22;3087;48.392;10.836;2024-03-02T08:45:20;9.80;99.90
6114;DHT22;3087;48.392;10.836;2024-03-02T08:47:46;9.90;99.90
6114;DHT22;3087;48.392;10.836;2024-03-02T08:50:12;10.00;99.90
6114;DHT22;3087;48.392;10.836;2024-03-02T08:52:37;10.00;99.90
6114;DHT22;3087;48.392;10.836;2024-03-02T08:55:03;10.00;99.90
6114;DHT22;3087;48.392;10.836;2024-03-02T08:57:28;10.00;99.90
6114;DHT22;3087;48.392;10.836;2024-03-02T08:59:54;10.60;99.90
6114;DHT22;3087;48.392;10.836;2024-03-02T09:02:20;10.00;99.90
6114;DHT22;3087;48.392;10.836;2024-03-02T09:04:46;10.00;99.90
6114;DHT22;3087;48.392;10.836;2024-03-02T09:07:12;10.10;99.90
6114;DHT22;3087;48.392;10.836;2024-03-02T09:09:37;10.20;99.90
6114;DHT22;3087;48.392;10.836;2024-03-02T09:12:05;10.70;99.90
6114;DHT22;3087;48.392;10.836;2024-03-02T09:14:31;10.20;99.90
6114;DHT22;3087;48.392;10.836;2024-03-02T09:16:57;10.50;99.90
6114;DHT22;3087;48.392;10.836;2024-03-02T09:19:22;10.30;99.90
6114;DHT22;3087;48.392;10.836;2024-03-02T09:21:48;10.30;99.90
6114;DHT22;3087;48.392;10.836;2024-03-02T09:24:13;10.40;99.90
6114;DHT22;3087;48.392;10.836;2024-03-02T09:26:39;10.70;99.90
6114;DHT22;3087;48.392;10.836;2024-03-02T09:29:04;10.70;99.90
6114;DHT22;3087;48.392;10.836;2024-03-02T09:31:30;11.30;99.90
6114;DHT22;3087;48.392;10.836;2024-03-02T09:33:55;11.00;99.90
6114;DHT22;3087;48.392;10.836;2024-03-02T09:36:22;10.90;99.90
6114;DHT22;3087;48.392;10.836;2024-03-02T09:38:48;11.00;99.90
6114;DHT22;3087;48.392;10.836;2024-03-02T09:41:17;11.20;99.90
6114;DHT22;3087;48.392;10.836;2024-03-02T09:43:42;11.30;99.90
6114;DHT22;3087;48.392;10.836;2024-03-02T09:46:11;11.40;99.90
6114;DHT22;3087;48.392;10.836;2024-03-02T09:48:37;11.60;99.90
6114;DHT22;3087;48.392;10.836;2024-03-02T09:51:04;11.90;99.90
6114;DHT22;3087;48.392;10.836;2024-03-02T09:53:32;11.90;99.90
6114;DHT22;3087;48.392;10.836;2024-03-02T09:55:59;12.20;99.90
6114;DHT22;3087;48.392;10.836;2024-03-02T09:58:25;12.30;99.90
6114;DHT22;3087;48.392;10.836;2024-03-02T10:00:51;12.50;99.90
6114;DHT22;3087;48.392;10.836;2024-03-02T10:03:18;13.00;99.90
6114;DHT22;3087;48.392;10.836;2024-03-02T10:05:44;13.70;99.90
6114;DHT22;3087;48.392;10.836;2024-03-02T10:08:09;14.50;99.90
6114;DHT22;3087;48.392;10.836;2024-03-02T10:10:40;15.00;99.90
6114;DHT22;3087;48.392;10.836;2024-03-02T10:13:06;15.50;99.90
6114;DHT22;3087;48.392;10.836;2024-03-02T10:15:33;15.80;99.90
6114;DHT22;3087;48.392;10.836;2024-03-02T10:17:58;15.90;99.90
6114;DHT22;3087;48.392;10.836;2024-03-02T10:20:26;15.90;99.90
6114;DHT22;3087;48.392;10.836;2024-03-02T10:22:54;15.40;99.90
6114;DHT22;3087;48.392;10.836;2024-03-02T10:25:32;15.20;99.90
6114;DHT22;3087;48.392;10.836;2024-03-02T10:27:59;15.60;99.90
6114;DHT22;3087;48.392;10.836;2024-03-02T10:30:28;16.20;99.90
6114;DHT22;3087;48.392;10.836;2024-03-02T10:32:54;16.60;99.90
6114;DHT22;3087;48.392;10.836;2024-03-02T10:35:21;17.20;99.90
6114;DHT22;3087;48.392;10.836;2024-03-02T10:37:48;17.30;99.90
6114;DHT22;3087;48.392;10.836;2024-03-02T10:40:14;17.00;99.90
6114;DHT22;3087;48.392;10.836;2024-03-02T10:42:41;17.50;99.90
6114;DHT22;3087;48.392;10.836;2024-03-02T10:45:09;17.90;99.90
6114;DHT22;3087;48.392;10.836;2024-03-02T10:47:38;18.20;99.90
6114;DHT22;3087;48.392;10.836;2024-03-02T10:50:07;18.40;99.90
6114;DHT22;3087;48.392;10.836;2024-03-02T10:52:35;18.30;99.90
6114;DHT22;3087;48.392;10.836;2024-03-02T10:55:01;18.00;99.90
6114;DHT22;3087;48.392;10.836;2024-03-02T10:57:28;17.90;99.90
6114;DHT22;3087;48.392;10.836;2024-03-02T11:00:02;18.10;99.90
6114;DHT22;3087;48.392;10.836;2024-03-02T11:02:30;18.20;99.90
6114;DHT22;3087;48.392;10.836;2024-03-02T11:05:00;18.20;99.90
6114;DHT22;3087;48.392;10.836;2024-03-02T11:07:32;18.40;99.90
6114;DHT22;3087;48.392;10.836;2024-03-02T11:10:00;18.90;99.90
6114;DHT22;3087;48.392;10.836;2024-03-02T11:12:56;19.50;99.90
6114;DHT22;3087;48.392;10.836;2024-03-02T11:15:25;19.90;99.90
6114;DHT22;3087;48.392;10.836;2024-03-02T11:17:51;20.00;99.70
6114;DHT22;3087;48.392;10.836;2024-03-02T11:20:18;19.50;99.50
6114;DHT22;3087;48.392;10.836;2024-03-02T11:22:44;19.30;99.70
6114;DHT22;3087;48.392;10.836;2024-03-02T11:25:27;19.40;99.90
6114;DHT22;3087;48.392;10.836;2024-03-02T11:33:07;21.00;99.20
6114;DHT22;3087;48.392;10.836;2024-03-02T11:35:33;20.80;98.80
6114;DHT22;3087;48.392;10.836;2024-03-02T11:38:01;21.20;98.80
6114;DHT22;3087;48.392;10.836;2024-03-02T11:40:29;21.20;98.40
6114;DHT22;3087;48.392;10.836;2024-03-02T11:42:55;21.00;98.40
6114;DHT22;3087;48.392;10.836;2024-03-02T11:45:27;21.00;98.00
6114;DHT22;3087;48.392;10.836;2024-03-02T11:47:57;20.90;97.90
6114;DHT22;3087;48.392;10.836;2024-03-02T11:50:42;20.70;98.00
6114;DHT22;3087;48.392;10.836;2024-03-02T11:53:11;21.00;97.90
6114;DHT22;3087;48.392;10.836;2024-03-02T11:55:38;21.00;98.20
6114;DHT22;3087;48.392;10.836;2024-03-02T11:58:14;20.60;98.00
6114;DHT22;3087;48.392;10.836;2024-03-02T12:00:43;20.10;98.70
6114;DHT22;3087;48.392;10.836;2024-03-02T12:03:12;19.70;98.40
6114;DHT22;3087;48.392;10.836;2024-03-02T12:05:39;19.40;98.30
6114;DHT22;3087;48.392;10.836;2024-03-02T12:08:08;19.50;98.40
6114;DHT22;3087;48.392;10.836;2024-03-02T12:10:36;20.10;98.00
6114;DHT22;3087;48.392;10.836;2024-03-02T12:13:03;20.60;97.50
6114;DHT22;3087;48.392;10.836;2024-03-02T12:15:33;20.40;97.00
6114;DHT22;3087;48.392;10.836;2024-03-02T12:18:01;20.70;97.10
6114;DHT22;3087;48.392;10.836;2024-03-02T12:20:28;20.80;96.30
6114;DHT22;3087;48.392;10.836;2024-03-02T12:22:55;21.20;96.60
6114;DHT22;3087;48.392;10.836;2024-03-02T12:25:24;20.90;96.50
6114;DHT22;3087;48.392;10.836;2024-03-02T12:27:54;21.00;96.60
6114;DHT22;3087;48.392;10.836;2024-03-02T12:30:21;20.90;96.90
6114;DHT22;3087;48.392;10.836;2024-03-02T12:32:47;21.40;97.20
6114;DHT22;3087;48.392;10.836;2024-03-02T12:35:14;21.60;96.60
6114;DHT22;3087;48.392;10.836;2024-03-02T12:40:13;21.70;96.30
6114;DHT22;3087;48.392;10.836;2024-03-02T12:42:40;22.00;96.30
6114;DHT22;3087;48.392;10.836;2024-03-02T12:45:07;22.20;95.50
6114;DHT22;3087;48.392;10.836;2024-03-02T12:47:36;21.40;95.80
6114;DHT22;3087;48.392;10.836;2024-03-02T12:50:03;21.10;96.40
6114;DHT22;3087;48.392;10.836;2024-03-02T12:52:29;21.20;96.60
6114;DHT22;3087;48.392;10.836;2024-03-02T12:54:56;21.60;96.20
6114;DHT22;3087;48.392;10.836;2024-03-02T12:57:31;22.00;96.50
6114;DHT22;3087;48.392;10.836;2024-03-02T13:00:02;22.00;96.30
6114;DHT22;3087;48.392;10.836;2024-03-02T13:02:35;21.90;96.10
6114;DHT22;3087;48.392;10.836;2024-03-02T13:05:00;22.10;95.90
6114;DHT22;3087;48.392;10.836;2024-03-02T13:07:26;22.00;96.10
6114;DHT22;3087;48.392;10.836;2024-03-02T13:09:53;21.60;95.40
6114;DHT22;3087;48.392;10.836;2024-03-02T13:12:21;21.40;95.40
6114;DHT22;3087;48.392;10.836;2024-03-02T13:14:51;21.20;95.60
6114;DHT22;3087;48.392;10.836;2024-03-02T13:17:18;21.30;95.50
6114;DHT22;3087;48.392;10.836;2024-03-02T13:20:04;21.60;95.10
6114;DHT22;3087;48.392;10.836;2024-03-02T13:22:33;21.70;95.00
6114;DHT22;3087;48.392;10.836;2024-03-02T13:24:59;21.70;94.60
6114;DHT22;3087;48.392;10.836;2024-03-02T13:27:26;21.70;95.70
6114;DHT22;3087;48.392;10.836;2024-03-02T13:29:52;22.00;95.30
6114;DHT22;3087;48.392;10.836;2024-03-02T13:32:17;21.90;94.80
6114;DHT22;3087;48.392;10.836;2024-03-02T13:34:49;22.20;95.00
6114;DHT22;3087;48.392;10.836;2024-03-02T13:37:14;22.20;94.90
6114;DHT22;3087;48.392;10.836;2024-03-02T13:39:40;22.00;94.80
6114;DHT22;3087;48.392;10.836;2024-03-02T13:42:10;21.90;94.50
6114;DHT22;3087;48.392;10.836;2024-03-02T13:44:37;21.90;94.80
6114;DHT22;3087;48.392;10.836;2024-03-02T13:47:04;21.50;94.90
6114;DHT22;3087;48.392;10.836;2024-03-02T13:49:30;21.40;94.90
6114;DHT22;3087;48.392;10.836;2024-03-02T13:52:07;21.10;94.60
6114;DHT22;3087;48.392;10.836;2024-03-02T13:54:38;20.90;94.40
6114;DHT22;3087;48.392;10.836;2024-03-02T13:57:04;20.80;94.40
6114;DHT22;3087;48.392;10.836;2024-03-02T13:59:30;20.70;94.20
6114;DHT22;3087;48.392;10.836;2024-03-02T14:01:56;21.10;94.20
6114;DHT22;3087;48.392;10.836;2024-03-02T14:04:22;21.40;94.50
6114;DHT22;3087;48.392;10.836;2024-03-02T14:06:47;21.30;94.30
6114;DHT22;3087;48.392;10.836;2024-03-02T14:09:13;21.40;94.40
6114;DHT22;3087;48.392;10.836;2024-03-02T14:11:39;21.20;94.20
6114;DHT22;3087;48.392;10.836;2024-03-02T14:14:04;21.50;94.70
6114;DHT22;3087;48.392;10.836;2024-03-02T14:16:30;21.60;94.40
6114;DHT22;3087;48.392;10.836;2024-03-02T14:18:56;21.40;94.60
6114;DHT22;3087;48.392;10.836;2024-03-02T14:21:21;21.40;94.50
6114;DHT22;3087;48.392;10.836;2024-03-02T14:23:47;21.00;94.30
6114;DHT22;3087;48.392;10.836;2024-03-02T14:26:12;20.60;94.30
6114;DHT22;3087;48.392;10.836;2024-03-02T14:28:38;19.90;94.20
6114;DHT22;3087;48.392;10.836;2024-03-02T14:31:04;19.20;94.40
6114;DHT22;3087;48.392;10.836;2024-03-02T14:33:29;18.40;94.50
6114;DHT22;3087;48.392;10.836;2024-03-02T14:35:57;18.00;94.70
6114;DHT22;3087;48.392;10.836;2024-03-02T14:38:23;17.30;94.80
6114;DHT22;3087;48.392;10.836;2024-03-02T14:40:48;16.70;95.30
6114;DHT22;3087;48.392;10.836;2024-03-02T14:43:14;16.40;95.60
6114;DHT22;3087;48.392;10.836;2024-03-02T14:45:40;16.30;95.90
6114;DHT22;3087;48.392;10.836;2024-03-02T14:48:06;15.90;96.40
6114;DHT22;3087;48.392;10.836;2024-03-02T14:50:31;15.70;96.90
6114;DHT22;3087;48.392;10.836;2024-03-02T14:52:57;15.50;97.00
6114;DHT22;3087;48.392;10.836;2024-03-02T14:55:23;15.40;96.90
6114;DHT22;3087;48.392;10.836;2024-03-02T14:57:49;15.10;96.70
6114;DHT22;3087;48.392;10.836;2024-03-02T15:00:15;15.20;97.20
6114;DHT22;3087;48.392;10.836;2024-03-02T15:02:41;14.90;97.40
6114;DHT22;3087;48.392;10.836;2024-03-02T15:05:07;14.90;97.50
6114;DHT22;3087;48.392;10.836;2024-03-02T15:07:33;14.90;97.30
6114;DHT22;3087;48.392;10.836;2024-03-02T15:09:58;14.90;97.50
6114;DHT22;3087;48.392;10.836;2024-03-02T15:12:24;14.80;97.60
6114;DHT22;3087;48.392;10.836;2024-03-02T15:14:50;15.00;98.00
6114;DHT22;3087;48.392;10.836;2024-03-02T15:17:16;14.60;98.00
6114;DHT22;3087;48.392;10.836;2024-03-02T15:19:45;14.60;97.80
6114;DHT22;3087;48.392;10.836;2024-03-02T15:22:12;14.50;97.40
6114;DHT22;3087;48.392;10.836;2024-03-02T15:24:37;14.40;97.70
6114;DHT22;3087;48.392;10.836;2024-03-02T15:27:04;14.50;97.70
6114;DHT22;3087;48.392;10.836;2024-03-02T15:29:31;14.40;97.60
6114;DHT22;3087;48.392;10.836;2024-03-02T15:31:57;14.20;97.60
6114;DHT22;3087;48.392;10.836;2024-03-02T15:34:23;14.00;97.90
6114;DHT22;3087;48.392;10.836;2024-03-02T15:36:49;14.00;98.10
6114;DHT22;3087;48.392;10.836;2024-03-02T15:39:15;14.00;98.30
6114;DHT22;3087;48.392;10.836;2024-03-02T15:41:43;13.80;98.60
6114;DHT22;3087;48.392;10.836;2024-03-02T15:44:10;13.90;98.90
6114;DHT22;3087;48.392;10.836;2024-03-02T15:46:36;13.90;99.10
6114;DHT22;3087;48.392;10.836;2024-03-02T15:49:02;13.90;99.30
6114;DHT22;3087;48.392;10.836;2024-03-02T15:51:28;13.80;99.50
6114;DHT22;3087;48.392;10.836;2024-03-02T15:53:54;13.90;99.60
6114;DHT22;3087;48.392;10.836;2024-03-02T15:56:20;13.90;99.50
6114;DHT22;3087;48.392;10.836;2024-03-02T15:58:46;13.80;99.50
6114;DHT22;3087;48.392;10.836;2024-03-02T16:01:12;13.70;99.40